Waukesha, WI (53146)

8:52 AM CDT on May 23, 2015 (GMT -0500)
Deer Path | | Change Station
CLOSE
Current Station
Personal Weather Station
Location: Waukesha, WI
Elevation: 970 ft
Nearby Weather Stations

Elev 970 ft 42.98 °N, 88.20 °W | Updated 1 minute ago

Clear
Clear
63.4 °F
Feels Like 63.4 °F
N
4.0
Wind Variable Wind from SSW
Gusts 7.0 mph

Today
High -- | Low -- °F
--% Chance of Precip.
Yesterday
High -- | Low -- °F
Precip. -- in
5:22 AM 8:16 PM
Waxing Crescent, 30% visible
Pressure 30.35 in
Visibility 10.0 miles
Clouds Few 25000 ft
Dew Point 30 °F
Humidity 28%
Rainfall 0.00 in
Snow Depth Not available.
UV 4 out of 12
Pollen 7.00 out of 12
Air Quality Not available.
Flu Activity Sporadic
METAR KUES 231345Z 22006KT 10SM FEW250 16/00 A3035

More Conditions Fewer Conditions

Pressure 30.35 in
Visibility 10.0 miles
Clouds Few 25000 ft
Dew Point 30 °F
Humidity 28%
Rainfall 0.00 in
Snow Depth Not available.
UV 4 out of 12
Pollen 7.00 out of 12
Air Quality Not available.
Flu Activity Sporadic
METAR KUES 231345Z 22006KT 10SM FEW250 16/00 A3035

More Conditions Fewer Conditions

10-Day Weather Forecast

Almanac

Astronomy

May. 23, 2015 Rise Set
Actual Time
Civil Twilight
Nautical Twilight
Astronomical Twilight
Moon
Length of Visible Light
Length of Day
Tomorrow will be .
, % of the Moon is Illuminated

Today's Extremes

State Highs State Lows

Community

WunderPhotos

Upload Photos

1,823,467 photos uploaded!

WunderBlogs® & News

Nearby

Air Quality

  Air Quality AQ Index Pollutant
Not available.

Snow Depth

Station Depth Elevation

Earthquake Activity

City Distance Mag. Time & Date
Minimum magnitude displayed is 2.5.

Coastal Water Temperatures

Place Temperature

Stations

Nearby Weather Stations

Station Location Temp. Windchill Dew Point Humidity Wind Precip. Elev Updated Type